Time;durP1;ratioP1;P1;durP2;ratioP2;P2;SDS_P1;SDS_P2;PMS_P1;PMS_P2;Temp;Humidity;BMP_temperature;BMP_pressure;BME280_temperature;BME280_humidity;BME280_pressure;Samples;Min_cycle;Max_cycle;Signal;HPM_P1;HPM_P2
2021/03/16 00:01:57;;;;;;;9.40;4.40;;;;;;;4.89;63.58;101151.38;5080432;28;20168;-65
2021/03/16 00:04:22;;;;;;;6.43;4.80;;;;;;;4.83;62.69;101145.09;5080919;28;20161;-65
2021/03/16 00:06:48;;;;;;;7.27;4.50;;;;;;;4.82;62.38;101151.97;5080429;28;20261;-65
2021/03/16 00:09:13;;;;;;;9.40;3.60;;;;;;;5.13;60.96;101153.19;5080448;28;20403;-66
2021/03/16 00:11:38;;;;;;;10.20;4.37;;;;;;;5.05;61.19;101154.59;5080556;28;20160;-66
2021/03/16 00:14:04;;;;;;;8.33;4.60;;;;;;;4.77;61.38;101166.41;5080543;28;20645;-67
2021/03/16 00:16:29;;;;;;;4.17;3.40;;;;;;;4.80;62.49;101169.09;5082777;28;20169;-65
2021/03/16 00:18:54;;;;;;;10.33;4.00;;;;;;;4.80;61.73;101170.81;5080817;28;20188;-65
2021/03/16 00:21:20;;;;;;;9.10;4.13;;;;;;;5.03;61.34;101170.03;5079771;28;20413;-66
2021/03/16 00:23:45;;;;;;;6.63;4.07;;;;;;;4.83;61.60;101184.75;5080166;28;20564;-65
2021/03/16 00:26:10;;;;;;;4.43;3.80;;;;;;;4.52;62.67;101177.47;5079445;28;20220;-65
2021/03/16 00:28:36;;;;;;;8.07;3.70;;;;;;;4.89;61.03;101184.09;5079948;28;20161;-67
2021/03/16 00:31:01;;;;;;;5.83;3.80;;;;;;;4.92;61.69;101184.22;5079941;28;20180;-65
2021/03/16 00:33:27;;;;;;;12.23;5.83;;;;;;;4.66;62.12;101181.47;5079767;28;20165;-66
2021/03/16 00:35:52;;;;;;;8.87;4.30;;;;;;;4.51;62.40;101186.88;5079712;28;20445;-66
2021/03/16 00:38:20;;;;;;;10.07;4.37;;;;;;;4.48;61.90;101196.19;5080394;28;20191;-65
2021/03/16 00:40:45;;;;;;;6.40;3.70;;;;;;;4.47;62.23;101197.03;5079840;28;20204;-66
2021/03/16 00:43:10;;;;;;;4.67;3.90;;;;;;;4.80;61.91;101196.66;5079636;28;20823;-66
2021/03/16 00:45:36;;;;;;;5.80;3.70;;;;;;;4.42;62.48;101201.13;5080202;28;20209;-65
2021/03/16 00:48:01;;;;;;;5.57;4.00;;;;;;;4.65;62.24;101195.19;5079774;28;20168;-66
2021/03/16 00:50:26;;;;;;;4.70;4.20;;;;;;;4.44;62.15;101202.94;5079729;28;20176;-67
2021/03/16 00:52:52;;;;;;;4.37;3.83;;;;;;;4.56;62.16;101215.50;5079646;28;20192;-66
2021/03/16 00:55:17;;;;;;;6.33;5.27;;;;;;;4.56;62.56;101212.91;5079473;28;20493;-66
2021/03/16 00:57:42;;;;;;;9.23;4.20;;;;;;;4.55;62.20;101218.88;5079598;28;20172;-67
2021/03/16 01:00:09;;;;;;;8.00;4.50;;;;;;;4.77;61.87;101214.63;5079936;28;20566;-67
2021/03/16 01:02:34;;;;;;;6.87;3.90;;;;;;;4.77;61.63;101215.47;5078452;28;20169;-66
2021/03/16 01:05:00;;;;;;;5.80;4.17;;;;;;;4.59;61.66;101220.78;5078901;28;20814;-67
2021/03/16 01:07:25;;;;;;;5.90;3.67;;;;;;;4.36;62.88;101220.69;5080200;28;20161;-67
2021/03/16 01:09:51;;;;;;;6.50;3.90;;;;;;;4.70;61.37;101216.94;5078772;28;20175;-66
2021/03/16 01:12:16;;;;;;;7.17;3.63;;;;;;;4.59;61.70;101219.88;5078461;28;20179;-65
2021/03/16 01:14:42;;;;;;;10.80;4.87;;;;;;;4.80;60.67;101217.31;5079478;28;20242;-66
2021/03/16 01:17:08;;;;;;;5.63;3.70;;;;;;;4.78;60.58;101225.00;5078312;28;20165;-66
2021/03/16 01:19:33;;;;;;;6.93;4.00;;;;;;;4.70;61.23;101227.25;5079013;28;20419;-65
2021/03/16 01:21:58;;;;;;;7.93;3.63;;;;;;;4.78;60.89;101224.13;5079455;28;20170;-65
2021/03/16 01:24:24;;;;;;;6.13;3.47;;;;;;;4.51;61.86;101230.78;5078926;28;20160;-65
2021/03/16 01:26:49;;;;;;;6.47;3.50;;;;;;;4.63;61.00;101233.00;5077987;28;20217;-65
2021/03/16 01:29:14;;;;;;;7.90;3.67;;;;;;;4.42;62.05;101237.25;5080358;28;20165;-66
2021/03/16 01:31:39;;;;;;;15.03;4.57;;;;;;;4.51;62.49;101235.06;5079886;28;20204;-66
2021/03/16 01:34:05;;;;;;;6.03;3.80;;;;;;;4.32;62.50;101228.25;5078997;28;20211;-66
2021/03/16 01:36:30;;;;;;;4.20;3.77;;;;;;;4.45;61.79;101229.63;5079460;28;20525;-66
2021/03/16 01:38:55;;;;;;;5.33;3.77;;;;;;;4.47;62.11;101228.00;5078173;28;20177;-66
2021/03/16 01:41:21;;;;;;;5.37;4.00;;;;;;;4.42;62.31;101230.38;5078633;28;20305;-66
2021/03/16 01:43:46;;;;;;;7.30;3.80;;;;;;;4.45;61.68;101227.06;5079184;28;20193;-65
2021/03/16 01:46:11;;;;;;;4.37;3.73;;;;;;;4.41;62.17;101222.56;5078664;28;20185;-66
2021/03/16 01:48:37;;;;;;;10.37;4.80;;;;;;;4.59;61.49;101223.34;5078864;28;20407;-66
2021/03/16 01:51:11;;;;;;;3.87;3.37;;;;;;;4.52;61.38;101223.94;5079048;28;20175;-66
2021/03/16 01:53:37;;;;;;;5.97;3.67;;;;;;;4.59;61.07;101223.34;5078646;28;20189;-66
2021/03/16 01:56:03;;;;;;;4.40;3.87;;;;;;;4.66;61.25;101230.53;5078878;28;20419;-67
2021/03/16 01:58:29;;;;;;;7.80;4.30;;;;;;;4.48;62.38;101225.50;5078500;28;20821;-67
2021/03/16 02:00:54;;;;;;;5.43;3.73;;;;;;;4.69;61.49;101234.94;5077665;28;20173;-67
2021/03/16 02:03:20;;;;;;;9.07;4.87;;;;;;;4.13;62.78;101236.88;5078786;28;20398;-67
2021/03/16 02:05:45;;;;;;;7.07;4.03;;;;;;;4.58;61.19;101237.09;5077570;28;20199;-67
2021/03/16 02:08:19;;;;;;;5.67;3.80;;;;;;;4.62;61.64;101233.81;5078312;28;20200;-67
2021/03/16 02:11:01;;;;;;;11.83;4.23;;;;;;;4.37;62.52;101234.47;5078328;28;20807;-67
2021/03/16 02:13:30;;;;;;;8.80;4.33;;;;;;;3.92;64.50;101239.38;5079021;28;20427;-67
2021/03/16 02:16:02;;;;;;;10.20;4.60;;;;;;;4.25;63.55;101236.53;5078284;28;20414;-67
2021/03/16 02:18:30;;;;;;;6.37;3.77;;;;;;;3.80;64.85;101240.63;5077527;28;20419;-67
2021/03/16 02:21:08;;;;;;;7.03;4.70;;;;;;;4.25;63.96;101245.16;5077396;28;20415;-67
2021/03/16 02:24:02;;;;;;;5.13;4.10;;;;;;;4.05;64.29;101241.69;5078178;28;20468;-66
2021/03/16 02:26:47;;;;;;;6.00;3.73;;;;;;;3.77;65.49;101242.16;5078064;28;20455;-67
2021/03/16 02:29:26;;;;;;;8.07;4.10;;;;;;;4.21;64.87;101248.44;5077433;28;20431;-66
2021/03/16 02:31:55;;;;;;;5.23;4.00;;;;;;;4.22;64.69;101245.91;5077284;28;20493;-66
2021/03/16 02:34:21;;;;;;;6.87;4.10;;;;;;;4.21;65.21;101256.16;5077265;28;20458;-66
2021/03/16 02:36:47;;;;;;;8.03;5.20;;;;;;;4.32;64.95;101252.34;5077311;28;20816;-66
2021/03/16 02:39:12;;;;;;;6.13;4.23;;;;;;;3.94;65.08;101256.69;5077815;28;20180;-66
2021/03/16 02:41:38;;;;;;;10.10;5.47;;;;;;;4.13;66.21;101252.38;5077163;28;20255;-66
2021/03/16 02:44:05;;;;;;;9.10;4.83;;;;;;;4.12;65.88;101260.91;5077221;28;20188;-66
2021/03/16 02:46:31;;;;;;;6.90;5.20;;;;;;;4.17;65.28;101259.44;5078244;28;20460;-67
2021/03/16 02:48:57;;;;;;;8.67;4.80;;;;;;;4.08;66.33;101259.03;5077248;28;20421;-66
2021/03/16 02:51:24;;;;;;;6.80;5.27;;;;;;;3.98;67.15;101262.91;5079743;28;20518;-67
2021/03/16 02:53:51;;;;;;;9.37;5.40;;;;;;;4.14;66.74;101261.84;5082273;28;20199;-67
2021/03/16 02:56:16;;;;;;;11.30;5.13;;;;;;;4.21;66.54;101264.78;5081664;28;20681;-66
2021/03/16 02:58:42;;;;;;;6.87;5.10;;;;;;;3.65;68.74;101273.41;5080896;28;20421;-66
2021/03/16 03:01:08;;;;;;;6.17;5.40;;;;;;;4.10;67.72;101268.59;5081585;28;20558;-66
2021/03/16 03:03:35;;;;;;;7.70;5.23;;;;;;;3.87;68.29;101273.59;5081678;28;20419;-67
2021/03/16 03:06:01;;;;;;;9.63;5.83;;;;;;;3.96;67.86;101277.41;5081089;28;20177;-66
2021/03/16 03:08:27;;;;;;;27.47;16.30;;;;;;;4.08;69.40;101280.53;5082576;28;20500;-67
2021/03/16 03:10:52;;;;;;;12.73;6.53;;;;;;;4.16;67.97;101276.59;5081370;28;20740;-66
2021/03/16 03:13:17;;;;;;;7.77;6.47;;;;;;;4.15;68.34;101279.09;5080685;28;20238;-66
2021/03/16 03:15:44;;;;;;;13.63;7.07;;;;;;;3.93;69.19;101280.72;5081561;28;20189;-66
2021/03/16 03:18:09;;;;;;;11.70;7.00;;;;;;;4.43;68.30;101282.91;5081412;28;20180;-66
2021/03/16 03:20:35;;;;;;;11.20;6.80;;;;;;;3.99;69.52;101280.13;5081312;28;20423;-66
2021/03/16 03:23:16;;;;;;;17.73;7.13;;;;;;;3.98;69.84;101284.41;5081690;28;20211;-66
2021/03/16 03:25:46;;;;;;;8.17;6.33;;;;;;;3.95;70.24;101280.78;5080429;28;20252;-66
2021/03/16 03:28:17;;;;;;;16.17;7.90;;;;;;;4.07;69.14;101291.66;5080496;28;20747;-66
2021/03/16 03:30:44;;;;;;;12.70;7.37;;;;;;;4.38;69.03;101290.44;5080479;28;20411;-66
2021/03/16 03:33:11;;;;;;;9.47;6.50;;;;;;;4.32;69.75;101285.91;5080464;28;20820;-67
2021/03/16 03:35:38;;;;;;;13.73;6.97;;;;;;;4.17;70.10;101301.59;5081534;28;20754;-66
2021/03/16 03:38:04;;;;;;;11.83;7.13;;;;;;;4.44;69.32;101294.97;5080511;28;20866;-67
2021/03/16 03:40:31;;;;;;;13.13;7.57;;;;;;;4.06;71.07;101297.66;5080949;28;20431;-67
2021/03/16 03:42:59;;;;;;;12.90;7.30;;;;;;;4.35;69.81;101298.94;5080424;28;20411;-66
2021/03/16 03:45:25;;;;;;;16.20;8.30;;;;;;;4.21;69.49;101307.78;5080119;28;20419;-66
2021/03/16 03:47:53;;;;;;;14.00;7.50;;;;;;;4.00;71.19;101300.81;5080146;28;20432;-67
2021/03/16 03:50:19;;;;;;;11.03;7.40;;;;;;;3.98;72.23;101299.88;5080560;28;20422;-67
2021/03/16 03:52:44;;;;;;;14.70;7.03;;;;;;;4.09;71.75;101302.94;5080607;28;20442;-67
2021/03/16 03:55:11;;;;;;;15.97;7.90;;;;;;;3.70;73.22;101319.22;5080600;28;20215;-67
2021/03/16 03:57:40;;;;;;;17.17;7.87;;;;;;;4.08;72.27;101308.91;5082469;28;20169;-66
2021/03/16 04:00:06;;;;;;;15.13;8.00;;;;;;;4.34;70.97;101320.41;5083431;28;20415;-68
2021/03/16 04:02:31;;;;;;;19.33;8.73;;;;;;;4.30;71.35;101317.63;5083685;28;20416;-67
2021/03/16 04:04:56;;;;;;;29.13;9.20;;;;;;;4.42;71.81;101314.69;5084409;28;20414;-66
2021/03/16 04:07:22;;;;;;;16.80;8.10;;;;;;;4.33;71.62;101321.22;5067977;28;20180;-67
2021/03/16 04:09:47;;;;;;;24.63;10.27;;;;;;;4.36;70.88;101316.19;5086337;28;20173;-67
2021/03/16 04:12:13;;;;;;;20.07;8.33;;;;;;;4.62;70.57;101313.88;5083702;28;20176;-66
2021/03/16 04:14:39;;;;;;;13.97;8.77;;;;;;;4.11;73.42;101321.06;5083340;28;20212;-68
2021/03/16 04:17:04;;;;;;;18.17;8.47;;;;;;;4.45;71.84;101320.91;5083142;28;20181;-68
2021/03/16 04:19:30;;;;;;;13.23;7.73;;;;;;;3.94;74.47;101321.19;5084567;28;20171;-66
2021/03/16 04:21:55;;;;;;;22.30;8.70;;;;;;;4.00;74.85;101318.00;5084254;28;20260;-66
2021/03/16 04:24:21;;;;;;;24.23;9.50;;;;;;;4.57;72.73;101323.09;5083168;28;20184;-66
2021/03/16 04:26:46;;;;;;;24.27;9.77;;;;;;;4.60;72.12;101327.53;5082265;28;20255;-68
2021/03/16 04:29:12;;;;;;;25.30;10.20;;;;;;;4.79;71.81;101326.63;5082226;28;20173;-67
2021/03/16 04:31:37;;;;;;;25.00;9.37;;;;;;;4.61;73.58;101331.88;5084454;28;20165;-67
2021/03/16 04:34:02;;;;;;;23.20;9.70;;;;;;;5.02;71.88;101328.47;5083326;28;20283;-67
2021/03/16 04:36:27;;;;;;;19.00;9.47;;;;;;;5.02;71.75;101330.16;5080972;28;20569;-67
2021/03/16 04:38:53;;;;;;;32.40;9.83;;;;;;;4.91;72.49;101339.19;5080513;28;20173;-66
2021/03/16 04:41:18;;;;;;;25.13;10.67;;;;;;;4.90;72.72;101340.88;5079851;28;20173;-67
2021/03/16 04:43:45;;;;;;;38.73;11.67;;;;;;;5.32;71.26;101340.91;5079370;28;20168;-66
2021/03/16 04:46:11;;;;;;;30.87;11.07;;;;;;;4.98;72.88;101344.69;5081327;28;20161;-68
2021/03/16 04:48:36;;;;;;;38.83;11.77;;;;;;;4.78;73.69;101345.53;5080377;28;20518;-66
2021/03/16 04:51:02;;;;;;;29.37;12.03;;;;;;;5.06;71.97;101356.22;5079753;28;20450;-66
2021/03/16 04:53:27;;;;;;;28.67;13.30;;;;;;;5.46;70.85;101350.91;5080216;28;20216;-68
2021/03/16 04:55:53;;;;;;;26.97;11.27;;;;;;;5.43;70.40;101361.16;5079452;28;20462;-68
2021/03/16 04:58:18;;;;;;;21.63;11.70;;;;;;;5.26;71.38;101366.50;5079736;28;20525;-68
2021/03/16 05:00:43;;;;;;;24.40;12.30;;;;;;;4.94;72.87;101367.72;5080083;28;20454;-67
2021/03/16 05:03:09;;;;;;;25.63;11.83;;;;;;;5.47;70.32;101365.63;5079291;28;20184;-67
2021/03/16 05:05:34;;;;;;;25.90;12.57;;;;;;;5.49;70.25;101374.31;5079478;28;20196;-68
2021/03/16 05:07:59;;;;;;;23.77;12.50;;;;;;;5.51;70.48;101380.44;5079854;28;20458;-67
2021/03/16 05:10:25;;;;;;;31.90;13.90;;;;;;;5.32;70.94;101387.44;5078480;28;20218;-66
2021/03/16 05:12:50;;;;;;;26.43;13.33;;;;;;;5.44;71.23;101381.00;5078592;28;20176;-67
2021/03/16 05:15:16;;;;;;;26.40;13.30;;;;;;;5.43;70.64;101385.28;5079323;28;20197;-67
2021/03/16 05:17:41;;;;;;;23.27;12.53;;;;;;;5.44;71.16;101391.34;5079337;28;20462;-67
2021/03/16 05:20:07;;;;;;;23.93;10.83;;;;;;;5.88;70.86;101387.06;5079100;28;20183;-67
2021/03/16 05:22:33;;;;;;;37.37;13.43;;;;;;;5.97;69.34;101389.16;5079287;28;20187;-67
2021/03/16 05:24:58;;;;;;;23.90;12.80;;;;;;;6.15;68.33;101389.88;5078938;28;20473;-68
2021/03/16 05:27:24;;;;;;;27.60;12.97;;;;;;;5.98;68.99;101393.50;5078855;28;20470;-66
2021/03/16 05:29:49;;;;;;;22.90;11.77;;;;;;;5.62;69.99;101389.50;5079306;28;20168;-67
2021/03/16 05:32:14;;;;;;;18.67;10.53;;;;;;;6.10;69.15;101383.63;5078699;28;20179;-66
2021/03/16 05:34:40;;;;;;;27.30;12.80;;;;;;;6.04;69.07;101393.75;5079196;28;20213;-68
2021/03/16 05:37:05;;;;;;;31.20;13.10;;;;;;;5.87;70.47;101393.06;5079485;28;20168;-67
2021/03/16 05:39:30;;;;;;;22.13;11.17;;;;;;;5.99;68.85;101395.28;5079182;28;20177;-66
2021/03/16 05:41:56;;;;;;;30.13;14.00;;;;;;;5.95;69.63;101399.41;5078635;28;20186;-68
2021/03/16 05:44:22;;;;;;;25.83;12.60;;;;;;;6.17;68.72;101393.41;5079369;28;20210;-66
2021/03/16 05:46:47;;;;;;;21.23;12.00;;;;;;;6.13;68.43;101398.41;5061294;28;20169;-66
2021/03/16 05:49:16;;;;;;;21.90;11.90;;;;;;;6.32;67.65;101393.09;5078124;28;20418;-66
2021/03/16 05:51:41;;;;;;;21.90;11.43;;;;;;;6.52;68.08;101393.84;5078958;28;20522;-66
2021/03/16 05:54:08;;;;;;;25.03;11.53;;;;;;;5.92;68.97;101403.63;5077718;28;20571;-66
2021/03/16 05:56:34;;;;;;;24.93;12.30;;;;;;;6.06;68.83;101407.63;5077887;28;20169;-66
2021/03/16 05:59:02;;;;;;;18.80;10.30;;;;;;;6.56;67.28;101395.72;5061663;28;20423;-67
2021/03/16 06:01:27;;;;;;;19.63;10.87;;;;;;;6.41;67.63;101400.31;5078415;28;20415;-67
2021/03/16 06:03:53;;;;;;;28.50;10.60;;;;;;;6.60;67.02;101403.59;5078991;28;20422;-68
2021/03/16 06:06:18;;;;;;;25.00;9.90;;;;;;;6.26;68.42;101408.41;5079791;28;20223;-66
2021/03/16 06:08:43;;;;;;;22.80;9.67;;;;;;;6.59;67.05;101407.91;5077874;28;20212;-67
2021/03/16 06:11:10;;;;;;;33.83;11.00;;;;;;;6.35;68.10;101413.94;5078205;28;20226;-66
2021/03/16 06:13:36;;;;;;;25.40;10.27;;;;;;;6.42;67.52;101411.59;5078863;28;20468;-66
2021/03/16 06:16:14;;;;;;;26.40;9.53;;;;;;;6.52;66.99;101416.28;5078189;28;20411;-66
2021/03/16 06:18:43;;;;;;;19.80;9.43;;;;;;;6.33;67.76;101423.38;5078327;28;20204;-66
2021/03/16 06:21:09;;;;;;;22.93;9.20;;;;;;;6.39;67.74;101417.53;5078166;28;20427;-66
2021/03/16 06:23:36;;;;;;;19.70;8.73;;;;;;;6.48;66.65;101427.34;5078285;28;20411;-67
2021/03/16 06:26:02;;;;;;;15.83;8.00;;;;;;;6.38;67.11;101428.72;5077895;28;20443;-68
2021/03/16 06:28:35;;;;;;;15.23;8.40;;;;;;;6.53;66.21;101436.16;5078204;28;20442;-68
2021/03/16 06:31:01;;;;;;;14.33;7.87;;;;;;;6.62;65.78;101431.34;5078150;28;20826;-66
2021/03/16 06:33:30;;;;;;;13.40;8.63;;;;;;;6.92;65.34;101433.28;5077280;28;20411;-67
2021/03/16 06:36:00;;;;;;;16.50;7.93;;;;;;;6.82;65.22;101428.56;5077951;28;20520;-66
2021/03/16 06:38:26;;;;;;;16.13;8.20;;;;;;;6.94;64.12;101438.50;5078684;28;20422;-67
2021/03/16 06:40:51;;;;;;;20.97;8.30;;;;;;;6.76;65.12;101437.00;5077939;28;20430;-67
2021/03/16 06:43:17;;;;;;;16.33;6.77;;;;;;;6.65;64.96;101428.84;5078135;28;20415;-66
2021/03/16 06:45:42;;;;;;;16.20;7.73;;;;;;;6.52;64.76;101437.00;5078656;28;20157;-66
2021/03/16 06:48:21;;;;;;;14.97;6.90;;;;;;;6.27;65.35;101440.38;5078165;28;20197;-69
2021/03/16 06:50:47;;;;;;;13.47;6.93;;;;;;;6.98;63.56;101443.88;5077921;28;20231;-66
2021/03/16 06:53:19;;;;;;;15.87;5.87;;;;;;;6.88;63.00;101439.19;5077443;28;20828;-68
2021/03/16 06:55:57;;;;;;;10.50;6.10;;;;;;;7.49;62.20;101437.81;5078021;28;20698;-69
2021/03/16 06:58:24;;;;;;;13.97;6.07;;;;;;;7.07;62.87;101431.22;5077912;28;20418;-69
2021/03/16 07:00:50;;;;;;;16.43;6.87;;;;;;;6.80;63.62;101443.19;5077697;28;20415;-69
2021/03/16 07:03:16;;;;;;;16.70;5.70;;;;;;;7.37;61.18;101440.00;5077704;28;20422;-67
2021/03/16 07:05:41;;;;;;;18.17;6.50;;;;;;;6.76;62.95;101449.09;5077843;28;20549;-68
2021/03/16 07:08:07;;;;;;;14.33;6.40;;;;;;;7.22;62.65;101448.16;5077826;28;20690;-66
2021/03/16 07:10:35;;;;;;;8.40;5.80;;;;;;;6.86;63.19;101443.41;5077144;28;20223;-67
2021/03/16 07:13:01;;;;;;;16.97;6.57;;;;;;;7.16;62.09;101443.63;5076736;28;20227;-66
2021/03/16 07:15:28;;;;;;;13.90;5.47;;;;;;;6.89;62.51;101452.19;5078118;28;20699;-67
2021/03/16 07:17:54;;;;;;;12.47;6.47;;;;;;;7.65;60.74;101452.19;5077799;28;20498;-67
2021/03/16 07:20:20;;;;;;;15.10;5.90;;;;;;;7.65;60.48;101452.19;5077680;28;20421;-68
2021/03/16 07:22:49;;;;;;;12.23;6.07;;;;;;;7.33;61.99;101466.66;5077258;28;20161;-67
2021/03/16 07:25:15;;;;;;;7.00;5.33;;;;;;;7.64;60.13;101463.41;5076903;28;20490;-68
2021/03/16 07:27:40;;;;;;;13.87;8.20;;;;;;;7.47;61.30;101464.53;5077620;28;20474;-67
2021/03/16 07:30:06;;;;;;;12.60;5.23;;;;;;;7.22;62.68;101466.28;5077285;28;20188;-66
2021/03/16 07:32:33;;;;;;;12.97;5.00;;;;;;;7.11;60.93;101467.63;5076633;28;20185;-70
2021/03/16 07:35:01;;;;;;;15.90;6.10;;;;;;;7.64;59.58;101466.00;5076947;28;20201;-67
2021/03/16 07:37:27;;;;;;;19.20;6.20;;;;;;;7.65;59.77;101469.50;5079565;28;20415;-67
2021/03/16 07:39:53;;;;;;;11.30;5.17;;;;;;;7.64;59.36;101471.19;5081001;28;20411;-67
2021/03/16 07:42:18;;;;;;;9.17;4.67;;;;;;;7.71;59.48;101470.56;5080477;28;20411;-69
2021/03/16 07:44:44;;;;;;;14.93;6.40;;;;;;;7.88;58.49;101480.63;5081501;28;20234;-67
2021/03/16 07:47:09;;;;;;;12.87;5.57;;;;;;;7.51;59.84;101479.38;5081123;28;20208;-67
2021/03/16 07:49:36;;;;;;;11.77;4.97;;;;;;;7.54;59.77;101482.09;5079399;28;20227;-66
2021/03/16 07:52:03;;;;;;;18.80;6.47;;;;;;;7.95;58.69;101482.56;5079517;28;20267;-66
2021/03/16 07:54:36;;;;;;;17.67;5.60;;;;;;;7.28;60.08;101487.28;5080379;28;20506;-66
2021/03/16 07:57:03;;;;;;;18.60;6.00;;;;;;;7.52;60.43;101486.34;5060788;28;20874;-66
2021/03/16 07:59:35;;;;;;;14.00;5.13;;;;;;;7.59;60.11;101488.34;5066228;28;20504;-66
2021/03/16 08:02:01;;;;;;;11.27;5.13;;;;;;;7.51;59.94;101492.34;5084896;28;20423;-67
2021/03/16 08:04:37;;;;;;;13.60;5.60;;;;;;;7.81;60.14;101486.47;5081469;28;20560;-66
2021/03/16 08:07:04;;;;;;;19.10;5.83;;;;;;;8.17;58.24;101484.16;5080556;28;20200;-66
2021/03/16 08:09:30;;;;;;;18.43;5.13;;;;;;;7.76;59.84;101491.47;5080514;28;20423;-67
2021/03/16 08:11:55;;;;;;;13.17;5.53;;;;;;;7.62;59.82;101487.53;5080557;28;20419;-66
2021/03/16 08:14:28;;;;;;;10.77;5.30;;;;;;;7.89;58.67;101490.19;5079803;28;20204;-66
2021/03/16 08:16:54;;;;;;;15.97;4.77;;;;;;;8.34;57.46;101491.59;5080765;28;20165;-66
2021/03/16 08:19:21;;;;;;;13.63;4.93;;;;;;;8.09;58.18;101494.31;5080393;28;20441;-67
2021/03/16 08:21:59;;;;;;;10.77;4.93;;;;;;;8.00;58.13;101494.00;5080091;28;20462;-65
2021/03/16 08:24:38;;;;;;;12.93;4.90;;;;;;;8.02;58.25;101494.03;5080229;28;20411;-67
2021/03/16 08:27:15;;;;;;;15.33;6.83;;;;;;;8.45;57.24;101489.31;5060408;28;20459;-66
2021/03/16 08:29:43;;;;;;;13.60;4.80;;;;;;;7.97;59.10;101501.69;5059209;28;20860;-66
2021/03/16 08:32:13;;;;;;;8.30;4.50;;;;;;;8.32;58.45;101501.94;5060223;28;20817;-66
2021/03/16 08:34:38;;;;;;;8.43;4.90;;;;;;;7.96;59.41;101504.25;5060073;28;20471;-67
2021/03/16 08:37:03;;;;;;;12.33;5.10;;;;;;;8.11;58.33;101503.88;5060010;28;20691;-67
2021/03/16 08:39:29;;;;;;;14.30;4.97;;;;;;;8.44;58.12;101504.00;5060544;28;20177;-66
2021/03/16 08:41:55;;;;;;;16.97;6.53;;;;;;;8.27;58.30;101501.78;5059739;28;20174;-66
2021/03/16 08:44:21;;;;;;;18.23;5.60;;;;;;;8.45;57.65;101505.81;5059828;28;20169;-65
2021/03/16 08:46:46;;;;;;;12.57;5.17;;;;;;;8.35;57.83;101504.63;5060132;28;20426;-65
2021/03/16 08:49:16;;;;;;;19.97;6.80;;;;;;;8.23;57.28;101512.03;5059235;28;20179;-65
2021/03/16 08:51:42;;;;;;;12.50;5.80;;;;;;;7.98;58.40;101515.56;5059890;28;20170;-65
2021/03/16 08:54:07;;;;;;;13.73;5.20;;;;;;;8.41;57.35;101511.72;5059521;28;20478;-66
2021/03/16 08:56:33;;;;;;;13.23;5.27;;;;;;;8.60;56.55;101515.78;5059709;28;20539;-66
2021/03/16 08:59:03;;;;;;;11.03;4.90;;;;;;;8.20;56.88;101514.50;5062982;28;20492;-68
2021/03/16 09:01:29;;;;;;;15.50;5.30;;;;;;;8.68;56.37;101516.03;5079427;28;20168;-66
2021/03/16 09:03:57;;;;;;;9.60;4.70;;;;;;;8.13;58.24;101509.97;5078691;28;20514;-67
2021/03/16 09:06:23;;;;;;;11.07;4.93;;;;;;;8.31;56.84;101510.56;5079362;28;20679;-67
2021/03/16 09:08:51;;;;;;;12.53;4.80;;;;;;;8.98;55.31;101507.38;5079849;28;20415;-66
2021/03/16 09:11:34;;;;;;;11.57;5.30;;;;;;;8.84;55.98;101509.56;5079152;28;20173;-65
2021/03/16 09:14:15;;;;;;;15.10;5.23;;;;;;;9.08;55.37;101507.66;5078931;28;20844;-66
2021/03/16 09:16:43;;;;;;;17.33;5.03;;;;;;;9.78;53.36;101512.09;5078975;28;20426;-66
2021/03/16 09:19:16;;;;;;;16.63;5.20;;;;;;;9.30;53.89;101516.06;5078885;28;20415;-63
2021/03/16 09:21:53;;;;;;;11.53;4.70;;;;;;;9.68;53.13;101518.81;5078758;28;20419;-64
2021/03/16 09:24:25;;;;;;;13.17;5.77;;;;;;;9.56;53.58;101516.75;5078964;28;20458;-66
2021/03/16 09:27:02;;;;;;;14.63;5.30;;;;;;;8.99;55.04;101514.34;5078512;28;20554;-65
2021/03/16 09:29:30;;;;;;;15.20;5.80;;;;;;;9.37;53.69;101522.31;5078525;28;20835;-66
2021/03/16 09:32:10;;;;;;;14.27;5.37;;;;;;;10.02;52.12;101509.22;5078447;28;20470;-66
2021/03/16 09:34:39;;;;;;;20.17;5.17;;;;;;;9.90;52.00;101515.03;5077482;28;20459;-65
2021/03/16 09:37:07;;;;;;;11.57;5.00;;;;;;;9.88;52.51;101510.63;5078132;28;20394;-66
2021/03/16 09:39:33;;;;;;;13.23;5.40;;;;;;;9.50;52.38;101508.81;5079218;28;20411;-65
2021/03/16 09:42:00;;;;;;;12.37;6.30;;;;;;;9.44;52.80;101512.13;5079270;28;20411;-66
2021/03/16 09:44:39;;;;;;;15.80;5.93;;;;;;;9.37;53.02;101517.13;5078578;28;20176;-65
2021/03/16 09:47:05;;;;;;;11.00;5.00;;;;;;;9.04;54.75;101512.75;5078374;28;20423;-63
2021/03/16 09:49:36;;;;;;;16.03;5.60;;;;;;;9.71;52.46;101518.88;5078505;28;20427;-66
2021/03/16 09:52:05;;;;;;;12.80;5.50;;;;;;;9.41;53.27;101525.03;5078258;28;20422;-66
2021/03/16 09:54:35;;;;;;;12.23;5.87;;;;;;;9.42;53.47;101516.41;5078341;28;20548;-65
2021/03/16 09:57:04;;;;;;;15.53;7.90;;;;;;;9.50;53.50;101521.81;5079176;28;20439;-63
2021/03/16 09:59:34;;;;;;;16.07;6.33;;;;;;;9.32;53.06;101534.31;5080671;28;20411;-65
2021/03/16 10:02:04;;;;;;;10.40;4.97;;;;;;;9.22;53.10;101543.59;5076972;28;20442;-65
2021/03/16 10:04:29;;;;;;;12.80;6.13;;;;;;;9.59;52.73;101540.28;5078135;28;20411;-66
2021/03/16 10:06:57;;;;;;;14.40;5.13;;;;;;;9.27;52.90;101542.88;5078354;28;20403;-67
2021/03/16 10:09:25;;;;;;;15.77;5.43;;;;;;;9.36;52.58;101541.38;5078175;28;20173;-67
2021/03/16 10:11:52;;;;;;;13.97;5.10;;;;;;;9.44;50.59;101539.84;5078041;28;20411;-66
2021/03/16 10:14:28;;;;;;;12.73;5.50;;;;;;;10.44;49.59;101542.41;5078296;28;20511;-67
2021/03/16 10:16:54;;;;;;;13.00;5.70;;;;;;;10.30;49.14;101541.16;5078006;28;20418;-66
2021/03/16 10:19:21;;;;;;;10.73;5.20;;;;;;;10.12;49.79;101549.44;5077952;28;20414;-63
2021/03/16 10:21:46;;;;;;;11.27;5.40;;;;;;;9.90;51.48;101556.72;5077978;28;20438;-64
2021/03/16 10:24:12;;;;;;;16.47;5.50;;;;;;;9.83;52.52;101556.50;5078021;28;20415;-64
2021/03/16 10:26:37;;;;;;;13.20;5.77;;;;;;;9.85;51.62;101568.72;5078040;28;20641;-63
2021/03/16 10:29:10;;;;;;;14.03;6.00;;;;;;;10.15;51.90;101570.34;5077201;28;20191;-65
2021/03/16 10:31:36;;;;;;;14.93;5.90;;;;;;;9.99;49.84;101566.47;5078114;28;20173;-65
2021/03/16 10:34:01;;;;;;;9.67;5.40;;;;;;;10.27;48.88;101561.94;5078101;28;20455;-67
2021/03/16 10:36:29;;;;;;;15.20;6.43;;;;;;;9.72;49.83;101566.66;5078778;28;20197;-67
2021/03/16 10:38:55;;;;;;;17.53;6.97;;;;;;;9.82;50.33;101562.56;5078561;28;20175;-67
2021/03/16 10:41:21;;;;;;;12.80;6.60;;;;;;;10.23;49.75;101565.34;5080671;28;20875;-67
2021/03/16 10:43:47;;;;;;;12.77;6.10;;;;;;;9.52;51.39;101568.72;5079529;28;20177;-67
2021/03/16 10:46:12;;;;;;;15.20;6.57;;;;;;;9.39;50.86;101568.38;5079200;28;20196;-66
2021/03/16 10:48:37;;;;;;;11.40;5.70;;;;;;;9.87;50.69;101571.38;5078166;28;20447;-67
2021/03/16 10:51:04;;;;;;;13.30;5.10;;;;;;;9.53;51.48;101573.94;5078012;28;20177;-64
2021/03/16 10:53:29;;;;;;;12.57;6.03;;;;;;;9.57;51.13;101573.19;5078165;28;20177;-65
2021/03/16 10:55:54;;;;;;;8.27;4.73;;;;;;;9.38;50.45;101569.19;5077369;28;20488;-64
2021/03/16 10:58:20;;;;;;;12.23;5.07;;;;;;;9.36;50.42;101568.28;5077703;28;20184;-64
2021/03/16 11:00:45;;;;;;;15.23;5.23;;;;;;;9.25;51.10;101574.91;5077386;28;20598;-64
2021/03/16 11:03:10;;;;;;;16.10;6.10;;;;;;;9.72;50.07;101567.50;5077554;28;20487;-65
2021/03/16 11:05:36;;;;;;;14.27;5.07;;;;;;;10.02;49.81;101571.75;5077964;28;20202;-65
2021/03/16 11:08:01;;;;;;;14.47;5.00;;;;;;;9.64;50.65;101569.03;5078981;28;20254;-66
2021/03/16 11:10:26;;;;;;;10.53;5.20;;;;;;;9.60;51.15;101580.22;5077725;28;20192;-66
2021/03/16 11:12:52;;;;;;;13.20;4.97;;;;;;;9.24;51.71;101579.22;5080496;28;20179;-67
2021/03/16 11:15:18;;;;;;;7.50;4.43;;;;;;;9.52;49.84;101576.50;5081764;28;20275;-65
2021/03/16 11:17:44;;;;;;;11.10;5.30;;;;;;;8.88;51.06;101582.50;5081307;28;20169;-68
2021/03/16 11:20:10;;;;;;;8.20;4.70;;;;;;;9.95;49.58;101578.53;5081507;28;20480;-67
2021/03/16 11:22:35;;;;;;;17.53;6.00;;;;;;;10.12;49.04;101578.09;5081676;28;20431;-70
2021/03/16 11:25:00;;;;;;;12.60;5.47;;;;;;;10.11;49.33;101587.63;5081183;28;20539;-68
2021/03/16 11:27:26;;;;;;;9.43;4.90;;;;;;;9.77;49.70;101586.75;5081159;28;20248;-67